createdAt,value
2023-04-24T00:01:59.799Z,4.28
2023-04-24T00:04:27.458Z,3.65
2023-04-24T00:06:58.596Z,4.45
2023-04-24T00:09:25.524Z,6.07
2023-04-24T00:11:52.430Z,4.78
2023-04-24T00:14:19.330Z,3.20
2023-04-24T00:16:46.267Z,3.65
2023-04-24T00:19:14.103Z,2.63
2023-04-24T00:21:42.263Z,1.30
2023-04-24T00:24:10.395Z,2.70
2023-04-24T00:26:37.199Z,2.05
2023-04-24T00:29:03.987Z,2.13
2023-04-24T00:31:30.885Z,3.58
2023-04-24T00:33:57.692Z,2.35
2023-04-24T00:36:24.475Z,2.65
2023-04-24T00:38:51.294Z,2.38
2023-04-24T00:41:18.214Z,3.55
2023-04-24T00:43:44.967Z,2.38
2023-04-24T00:46:12.368Z,1.52
2023-04-24T00:48:40.705Z,1.30
2023-04-24T00:51:07.969Z,1.30
2023-04-24T00:53:34.847Z,1.98
2023-04-24T00:56:01.789Z,3.05
2023-04-24T00:58:28.868Z,1.60
2023-04-24T01:00:56.607Z,1.65
2023-04-24T01:03:24.101Z,1.92
2023-04-24T01:05:51.345Z,1.70
2023-04-24T01:08:18.211Z,1.63
2023-04-24T01:10:45.374Z,2.17
2023-04-24T01:13:12.441Z,1.60
2023-04-24T01:15:39.419Z,2.03
2023-04-24T01:18:29.007Z,2.63
2023-04-24T01:20:59.843Z,2.42
2023-04-24T01:23:29.113Z,2.03
2023-04-24T01:25:56.019Z,2.53
2023-04-24T01:28:23.351Z,2.97
2023-04-24T01:30:50.306Z,2.15
2023-04-24T01:33:17.114Z,1.50
2023-04-24T01:35:44.223Z,3.20
2023-04-24T01:38:11.178Z,3.35
2023-04-24T01:40:37.944Z,2.40
2023-04-24T01:43:05.668Z,3.58
2023-04-24T01:45:32.962Z,2.08
2023-04-24T01:48:00.235Z,2.42
2023-04-24T01:50:27.475Z,3.78
2023-04-24T01:52:54.212Z,4.57
2023-04-24T01:55:20.995Z,5.22
2023-04-24T01:57:47.992Z,3.80
2023-04-24T02:00:15.709Z,2.83
2023-04-24T02:02:45.622Z,2.50
2023-04-24T02:05:14.314Z,1.77
2023-04-24T02:07:41.279Z,1.95
2023-04-24T02:10:08.643Z,1.83
2023-04-24T02:12:35.745Z,1.33
2023-04-24T02:15:02.598Z,3.08
2023-04-24T02:17:29.549Z,1.20
2023-04-24T02:19:56.418Z,5.40
2023-04-24T02:22:23.316Z,3.92
2023-04-24T02:24:50.330Z,1.50
2023-04-24T02:27:17.629Z,3.10
2023-04-24T02:29:44.729Z,1.38
2023-04-24T02:32:13.436Z,2.00
2023-04-24T02:34:40.404Z,1.92
2023-04-24T02:37:07.203Z,1.40
2023-04-24T02:39:34.203Z,2.55
2023-04-24T02:42:01.564Z,2.80
2023-04-24T02:44:28.249Z,2.90
2023-04-24T02:46:54.937Z,2.45
2023-04-24T02:49:21.688Z,3.28
2023-04-24T02:51:48.440Z,3.50
2023-04-24T02:54:15.771Z,3.10
2023-04-24T02:56:42.510Z,2.13
2023-04-24T02:59:09.245Z,1.98
2023-04-24T03:01:36.735Z,3.30
2023-04-24T03:04:03.978Z,2.15
2023-04-24T03:06:32.598Z,1.80
2023-04-24T03:08:59.466Z,3.72
2023-04-24T03:11:26.538Z,1.77
2023-04-24T03:13:53.726Z,1.38
2023-04-24T03:16:20.667Z,1.67
2023-04-24T03:18:47.586Z,3.95
2023-04-24T03:21:14.354Z,1.40
2023-04-24T03:23:41.051Z,1.92
2023-04-24T03:26:07.971Z,2.40
2023-04-24T03:28:34.846Z,1.27
2023-04-24T03:31:01.672Z,2.58
2023-04-24T03:33:28.543Z,1.27
2023-04-24T03:35:55.809Z,1.90
2023-04-24T03:38:22.592Z,2.05
2023-04-24T03:40:49.431Z,3.97
2023-04-24T03:43:16.272Z,2.92
2023-04-24T03:45:43.146Z,2.65
2023-04-24T03:48:10.160Z,4.47
2023-04-24T03:50:37.066Z,4.03
2023-04-24T03:53:04.097Z,3.90
2023-04-24T03:55:31.068Z,3.80
2023-04-24T03:57:57.780Z,2.33
2023-04-24T04:00:24.589Z,5.88
2023-04-24T04:02:51.774Z,2.45
2023-04-24T04:05:18.667Z,1.92
2023-04-24T04:07:45.784Z,2.83
2023-04-24T04:10:12.640Z,1.73
2023-04-24T04:12:39.631Z,2.25
2023-04-24T04:15:08.118Z,2.92
2023-04-24T04:17:35.096Z,3.88
2023-04-24T04:20:02.363Z,4.65
2023-04-24T04:22:29.171Z,4.85
2023-04-24T04:24:56.220Z,3.70
2023-04-24T04:27:23.422Z,5.10
2023-04-24T04:29:50.350Z,2.35
2023-04-24T04:32:17.727Z,1.38
2023-04-24T04:34:46.885Z,2.35
2023-04-24T04:37:14.130Z,2.13
2023-04-24T04:39:41.475Z,3.67
2023-04-24T04:42:08.453Z,4.28
2023-04-24T04:44:37.457Z,3.85
2023-04-24T04:47:07.935Z,1.67
2023-04-24T04:49:35.915Z,2.60
2023-04-24T04:52:02.848Z,2.00
2023-04-24T04:54:29.864Z,3.55
2023-04-24T04:56:57.277Z,3.55
2023-04-24T04:59:24.290Z,2.80
2023-04-24T05:01:52.053Z,6.75
2023-04-24T05:04:19.941Z,4.70
2023-04-24T05:06:48.453Z,2.22
2023-04-24T05:09:16.467Z,1.70
2023-04-24T05:11:43.404Z,1.65
2023-04-24T05:14:12.717Z,1.48
2023-04-24T05:16:42.333Z,2.22
2023-04-24T05:19:10.907Z,2.30
2023-04-24T05:21:38.989Z,1.50
2023-04-24T05:24:06.226Z,2.35
2023-04-24T05:26:33.238Z,1.30
2023-04-24T05:29:00.350Z,2.13
2023-04-24T05:31:27.442Z,1.58
2023-04-24T05:33:54.672Z,1.85
2023-04-24T05:36:22.058Z,3.05
2023-04-24T05:38:53.554Z,1.67
2023-04-24T05:41:24.188Z,1.50
2023-04-24T05:43:53.110Z,0.95
2023-04-24T05:46:22.880Z,1.73
2023-04-24T05:48:49.830Z,2.22
2023-04-24T05:51:16.723Z,1.23
2023-04-24T05:53:45.468Z,0.95
2023-04-24T05:56:14.317Z,4.95
2023-04-24T05:58:43.505Z,2.45
2023-04-24T06:01:11.052Z,1.75
2023-04-24T06:03:38.173Z,1.00
2023-04-24T06:06:05.333Z,2.35
2023-04-24T06:08:32.107Z,1.23
2023-04-24T06:10:59.225Z,1.10
2023-04-24T06:13:26.430Z,1.17
2023-04-24T06:15:54.422Z,1.63
2023-04-24T06:18:21.162Z,1.30
2023-04-24T06:20:49.245Z,1.50
2023-04-24T06:23:16.570Z,1.42
2023-04-24T06:25:43.858Z,3.28
2023-04-24T06:28:11.834Z,2.45
2023-04-24T06:30:38.934Z,1.02
2023-04-24T06:33:19.494Z,1.17
2023-04-24T06:35:47.674Z,0.95
2023-04-24T06:38:14.866Z,0.98
2023-04-24T06:40:44.996Z,1.88
2023-04-24T06:43:12.581Z,1.08
2023-04-24T06:45:41.254Z,1.35
2023-04-24T06:48:08.262Z,2.58
2023-04-24T06:50:36.232Z,1.23
2023-04-24T06:53:03.060Z,1.30
2023-04-24T06:55:30.097Z,2.88
2023-04-24T06:57:57.409Z,1.58
2023-04-24T07:00:26.103Z,1.67
2023-04-24T07:02:54.161Z,1.40
2023-04-24T07:05:21.489Z,2.67
2023-04-24T07:07:48.872Z,1.75
2023-04-24T07:10:16.127Z,1.60
2023-04-24T07:12:43.208Z,1.30
2023-04-24T07:15:11.083Z,1.27
2023-04-24T07:17:39.846Z,4.65
2023-04-24T07:20:09.328Z,1.50
2023-04-24T07:22:36.206Z,2.05
2023-04-24T07:25:03.891Z,1.40
2023-04-24T07:27:30.996Z,1.45
2023-04-24T07:29:57.833Z,1.50
2023-04-24T07:32:25.016Z,1.65
2023-04-24T07:34:51.861Z,1.52
2023-04-24T07:37:18.883Z,2.63
2023-04-24T07:39:46.777Z,2.20
2023-04-24T07:42:13.757Z,1.40
2023-04-24T07:44:40.954Z,1.50
2023-04-24T07:47:07.902Z,1.67
2023-04-24T07:49:36.377Z,2.13
2023-04-24T07:52:03.821Z,1.40
2023-04-24T07:54:31.163Z,5.03
2023-04-24T07:56:58.179Z,1.70
2023-04-24T07:59:25.874Z,3.58
2023-04-24T08:01:52.599Z,2.95
2023-04-24T08:04:20.037Z,2.58
2023-04-24T08:06:50.042Z,2.00
2023-04-24T08:09:16.927Z,2.35
2023-04-24T08:11:45.035Z,2.42
2023-04-24T08:14:13.828Z,3.17
2023-04-24T08:16:40.659Z,1.85
2023-04-24T08:19:07.849Z,1.60
2023-04-24T08:21:35.447Z,2.25
2023-04-24T08:24:06.583Z,1.38
2023-04-24T08:26:33.747Z,1.40
2023-04-24T08:29:00.628Z,2.40
2023-04-24T08:31:28.070Z,2.17
2023-04-24T08:33:55.542Z,4.95
2023-04-24T08:36:23.827Z,1.45
2023-04-24T08:38:54.195Z,1.58
2023-04-24T08:41:21.280Z,2.45
2023-04-24T08:43:48.276Z,1.60
2023-04-24T08:46:17.947Z,1.80
2023-04-24T08:48:44.986Z,3.05
2023-04-24T08:51:12.199Z,2.78
2023-04-24T08:53:39.327Z,1.80
2023-04-24T08:56:06.565Z,3.08
2023-04-24T08:58:33.655Z,2.75
2023-04-24T09:01:00.845Z,2.92
2023-04-24T09:03:29.810Z,2.28
2023-04-24T09:05:57.269Z,2.13
2023-04-24T09:08:26.920Z,2.53
2023-04-24T09:10:54.180Z,2.20
2023-04-24T09:13:22.189Z,3.78
2023-04-24T09:15:48.997Z,2.83
2023-04-24T09:18:15.965Z,3.08
2023-04-24T09:21:04.210Z,2.30
2023-04-24T09:23:32.734Z,3.00
2023-04-24T09:26:06.326Z,4.35
2023-04-24T09:28:36.385Z,2.30
2023-04-24T09:31:12.743Z,3.13
2023-04-24T09:33:39.800Z,2.80
2023-04-24T09:36:07.669Z,2.58
2023-04-24T09:38:36.952Z,2.85
2023-04-24T09:41:07.573Z,3.63
2023-04-24T09:43:35.786Z,4.35
2023-04-24T09:46:11.199Z,3.47
2023-04-24T09:48:39.009Z,3.42
2023-04-24T09:51:12.526Z,2.80
2023-04-24T09:53:47.429Z,3.58
2023-04-24T09:56:14.817Z,5.47
2023-04-24T09:58:41.862Z,3.40
2023-04-24T10:01:09.391Z,3.10
2023-04-24T10:03:38.019Z,3.60
2023-04-24T10:06:10.455Z,4.28
2023-04-24T10:08:38.944Z,3.38
2023-04-24T10:11:07.001Z,5.72
2023-04-24T10:13:34.525Z,3.63
2023-04-24T10:16:02.775Z,2.28
2023-04-24T10:18:30.256Z,3.28
2023-04-24T10:20:57.901Z,7.93
2023-04-24T10:23:26.749Z,2.00
2023-04-24T10:25:53.886Z,2.15
2023-04-24T10:28:22.185Z,1.98
2023-04-24T10:30:49.169Z,2.30
2023-04-24T10:33:17.967Z,1.95
2023-04-24T10:35:49.143Z,3.35
2023-04-24T10:38:19.744Z,3.55
2023-04-24T10:40:46.630Z,2.53
2023-04-24T10:43:18.987Z,2.50
2023-04-24T10:46:06.201Z,2.47
2023-04-24T10:48:33.886Z,1.98
2023-04-24T10:51:01.395Z,2.38
2023-04-24T10:53:30.707Z,3.85
2023-04-24T10:56:05.848Z,1.80
2023-04-24T10:59:00.391Z,2.85
2023-04-24T11:01:29.552Z,1.98
2023-04-24T11:04:04.682Z,1.85
2023-04-24T11:06:33.350Z,1.90
2023-04-24T11:09:08.827Z,2.55
2023-04-24T11:11:38.933Z,3.78
2023-04-24T11:14:08.034Z,4.38
2023-04-24T11:16:54.685Z,1.40
2023-04-24T11:19:23.502Z,1.23
2023-04-24T11:22:04.191Z,1.35
2023-04-24T11:24:42.063Z,1.30
2023-04-24T11:27:21.155Z,1.77
2023-04-24T11:29:50.494Z,2.95
2023-04-24T11:32:51.088Z,2.95
2023-04-24T11:35:22.772Z,3.05
2023-04-24T11:40:24.361Z,3.60
2023-04-24T11:42:52.621Z,2.15
2023-04-24T11:45:22.558Z,1.08
2023-04-24T11:47:49.837Z,1.60
2023-04-24T11:50:18.705Z,1.60
2023-04-24T11:52:47.791Z,1.23
2023-04-24T11:55:32.771Z,1.05
2023-04-24T11:58:01.387Z,1.77
2023-04-24T12:00:30.150Z,1.15
2023-04-24T12:03:10.186Z,1.20
2023-04-24T12:05:37.934Z,1.20
2023-04-24T12:08:06.400Z,1.02
2023-04-24T12:10:34.659Z,0.77
2023-04-24T12:13:02.099Z,2.40
2023-04-24T12:15:29.357Z,1.73
2023-04-24T12:17:57.678Z,2.35
2023-04-24T12:20:29.887Z,0.63
2023-04-24T12:22:58.452Z,0.28
2023-04-24T12:25:34.934Z,0.50
2023-04-24T12:28:05.063Z,1.25
2023-04-24T12:30:34.627Z,0.40
2023-04-24T12:33:02.171Z,0.40
2023-04-24T12:35:30.413Z,0.93
2023-04-24T12:37:57.269Z,0.30
2023-04-24T12:40:27.240Z,0.20
2023-04-24T12:42:55.242Z,0.30
2023-04-24T12:45:25.218Z,0.22
2023-04-24T12:47:52.149Z,2.28
2023-04-24T12:50:19.160Z,0.10
2023-04-24T12:52:46.563Z,0.15
2023-04-24T12:55:13.576Z,0.15
2023-04-24T12:57:41.369Z,0.10
2023-04-24T13:00:09.610Z,0.17
2023-04-24T13:02:36.830Z,0.15
2023-04-24T13:05:04.329Z,0.43
2023-04-24T13:07:31.291Z,1.75
2023-04-24T13:09:59.379Z,0.10
2023-04-24T13:12:26.874Z,0.20
2023-04-24T13:14:54.830Z,0.30
2023-04-24T13:17:22.043Z,0.00
2023-04-24T13:19:51.486Z,0.10
2023-04-24T13:22:20.125Z,1.00
2023-04-24T13:24:47.167Z,0.63
2023-04-24T13:27:14.009Z,0.32
2023-04-24T13:29:40.875Z,0.88
2023-04-24T13:32:07.997Z,0.20
2023-04-24T13:34:35.947Z,0.40
2023-04-24T13:37:05.431Z,0.40
2023-04-24T13:39:33.263Z,0.82
2023-04-24T13:42:01.958Z,0.30
2023-04-24T13:44:30.046Z,0.50
2023-04-24T13:46:58.636Z,0.40
2023-04-24T13:49:26.821Z,0.50
2023-04-24T13:51:54.940Z,0.45
2023-04-24T13:54:22.178Z,1.30
2023-04-24T13:56:48.994Z,1.50
2023-04-24T13:59:16.155Z,2.75
2023-04-24T14:01:43.524Z,0.70
2023-04-24T14:04:10.488Z,1.13
2023-04-24T14:06:37.473Z,0.70
2023-04-24T14:09:05.772Z,0.88
2023-04-24T14:11:32.712Z,0.60
2023-04-24T14:13:59.545Z,0.73
2023-04-24T14:16:26.400Z,1.33
2023-04-24T14:18:53.428Z,0.98
2023-04-24T14:21:20.382Z,1.00
2023-04-24T14:23:47.494Z,1.65
2023-04-24T14:26:15.089Z,1.02
2023-04-24T14:28:44.005Z,1.60
2023-04-24T14:31:12.892Z,1.10
2023-04-24T14:33:39.689Z,1.20
2023-04-24T14:36:06.977Z,1.15
2023-04-24T14:38:34.024Z,1.40
2023-04-24T14:43:31.770Z,4.18
2023-04-24T14:45:58.995Z,1.30
2023-04-24T14:48:26.138Z,1.80
2023-04-24T14:50:52.915Z,1.30
2023-04-24T14:53:20.109Z,1.60
2023-04-24T14:55:47.064Z,2.95
2023-04-24T14:58:14.158Z,2.17
2023-04-24T15:00:41.236Z,2.05
2023-04-24T15:03:08.810Z,1.83
2023-04-24T15:05:37.552Z,3.10
2023-04-24T15:08:05.174Z,1.60
2023-04-24T15:10:32.069Z,3.40
2023-04-24T15:12:59.542Z,2.45
2023-04-24T15:15:26.764Z,1.50
2023-04-24T15:17:54.137Z,1.65
2023-04-24T15:20:21.685Z,1.75
2023-04-24T15:22:48.443Z,2.10
2023-04-24T15:25:15.523Z,1.60
2023-04-24T15:27:47.179Z,1.80
2023-04-24T15:30:14.865Z,2.38
2023-04-24T15:32:41.863Z,2.05
2023-04-24T15:35:10.600Z,2.63
2023-04-24T15:37:39.035Z,2.58
2023-04-24T15:40:08.523Z,2.13
2023-04-24T15:42:36.398Z,1.77
2023-04-24T15:45:04.704Z,2.58
2023-04-24T15:47:32.076Z,2.22
2023-04-24T15:49:59.034Z,2.50
2023-04-24T15:52:26.145Z,2.40
2023-04-24T15:54:53.259Z,1.88
2023-04-24T15:57:20.701Z,2.33
2023-04-24T15:59:47.783Z,2.65
2023-04-24T16:02:19.686Z,2.35
2023-04-24T16:04:51.442Z,2.65
2023-04-24T16:07:18.589Z,3.85
2023-04-24T16:09:46.069Z,2.28
2023-04-24T16:12:13.017Z,2.63
2023-04-24T16:14:39.961Z,4.32
2023-04-24T16:17:06.920Z,3.15
2023-04-24T16:19:35.223Z,3.40
2023-04-24T16:22:03.431Z,2.25
2023-04-24T16:24:30.734Z,2.65
2023-04-24T16:26:58.031Z,4.80
2023-04-24T16:29:24.919Z,3.35
2023-04-24T16:31:52.261Z,2.40
2023-04-24T16:34:19.466Z,3.83
2023-04-24T16:36:46.508Z,3.05
2023-04-24T16:39:13.703Z,5.28
2023-04-24T16:41:41.127Z,3.92
2023-04-24T16:44:08.179Z,3.55
2023-04-24T16:46:35.220Z,3.78
2023-04-24T16:49:02.069Z,4.53
2023-04-24T16:51:29.293Z,4.28
2023-04-24T16:53:56.304Z,4.47
2023-04-24T16:56:23.318Z,4.53
2023-04-24T16:58:51.231Z,2.60
2023-04-24T17:01:18.255Z,3.28
2023-04-24T17:03:45.465Z,22.42
2023-04-24T17:06:12.951Z,8.13
2023-04-24T17:08:39.831Z,11.65
2023-04-24T17:11:06.892Z,7.13
2023-04-24T17:13:33.701Z,3.78
2023-04-24T17:16:00.715Z,4.15
2023-04-24T17:18:27.644Z,6.03
2023-04-24T17:20:54.460Z,4.45
2023-04-24T17:23:21.468Z,5.13
2023-04-24T17:25:48.203Z,6.15
2023-04-24T17:28:24.674Z,6.68
2023-04-24T17:30:51.907Z,8.15
2023-04-24T17:33:18.620Z,4.78
2023-04-24T17:35:45.463Z,4.68
2023-04-24T17:38:12.578Z,5.65
2023-04-24T17:40:39.745Z,6.00
2023-04-24T17:43:06.575Z,6.43
2023-04-24T17:45:33.681Z,6.10
2023-04-24T17:48:00.730Z,6.97
2023-04-24T17:50:27.995Z,6.90
2023-04-24T17:52:54.887Z,6.57
2023-04-24T17:55:21.876Z,4.43
2023-04-24T17:57:48.834Z,7.88
2023-04-24T18:00:16.509Z,7.80
2023-04-24T18:02:43.461Z,8.55
2023-04-24T18:05:10.436Z,8.73
2023-04-24T18:07:37.491Z,9.82
2023-04-24T18:10:04.522Z,7.70
2023-04-24T18:12:31.605Z,9.77
2023-04-24T18:15:13.046Z,7.20
2023-04-24T18:17:41.332Z,6.35
2023-04-24T18:20:08.875Z,9.05
2023-04-24T18:22:35.694Z,8.48
2023-04-24T18:25:02.750Z,7.57
2023-04-24T18:27:31.432Z,6.85
2023-04-24T18:29:59.647Z,12.80
2023-04-24T18:32:27.526Z,9.95
2023-04-24T18:34:54.459Z,10.88
2023-04-24T18:37:21.721Z,10.05
2023-04-24T18:39:51.063Z,6.90
2023-04-24T18:42:18.775Z,8.93
2023-04-24T18:44:45.740Z,10.30
2023-04-24T18:47:13.017Z,11.30
2023-04-24T18:49:39.897Z,8.68
2023-04-24T18:52:06.722Z,10.93
2023-04-24T18:54:33.677Z,12.43
2023-04-24T18:57:01.979Z,10.30
2023-04-24T18:59:28.756Z,10.93
2023-04-24T19:01:55.644Z,7.57
2023-04-24T19:04:22.655Z,10.82
2023-04-24T19:06:49.785Z,9.55
2023-04-24T19:09:16.867Z,8.98
2023-04-24T19:11:45.035Z,8.43
2023-04-24T19:14:12.161Z,10.07
2023-04-24T19:16:39.411Z,9.75
2023-04-24T19:19:06.277Z,9.73
2023-04-24T19:21:33.708Z,8.80
2023-04-24T19:24:00.685Z,10.90
2023-04-24T19:26:28.658Z,8.55
2023-04-24T19:28:58.296Z,9.30
2023-04-24T19:31:25.841Z,6.65
2023-04-24T19:33:52.934Z,9.23
2023-04-24T19:36:19.928Z,11.68
2023-04-24T19:38:47.602Z,9.93
2023-04-24T19:41:14.485Z,7.05
2023-04-24T19:43:41.193Z,9.75
2023-04-24T19:46:08.354Z,8.10
2023-04-24T19:48:35.144Z,7.30
2023-04-24T19:51:03.148Z,8.95
2023-04-24T19:53:30.154Z,9.80
2023-04-24T19:55:57.380Z,8.40
2023-04-24T19:58:24.600Z,8.68
2023-04-24T20:00:51.638Z,9.63
2023-04-24T20:03:31.497Z,8.52
2023-04-24T20:06:00.262Z,8.27
2023-04-24T20:08:27.185Z,8.05
2023-04-24T20:10:54.821Z,9.68
2023-04-24T20:13:21.623Z,10.25
2023-04-24T20:15:48.636Z,7.35
2023-04-24T20:18:15.533Z,10.05
2023-04-24T20:20:42.518Z,12.68
2023-04-24T20:23:09.225Z,6.95
2023-04-24T20:25:36.572Z,7.43
2023-04-24T20:28:03.589Z,8.80
2023-04-24T20:30:31.725Z,10.85
2023-04-24T20:32:59.335Z,8.90
2023-04-24T20:35:26.328Z,6.82
2023-04-24T20:37:54.004Z,7.15
2023-04-24T20:40:20.892Z,8.77
2023-04-24T20:42:47.692Z,8.75
2023-04-24T20:45:14.579Z,7.68
2023-04-24T20:47:41.494Z,7.65
2023-04-24T20:50:09.225Z,9.75
2023-04-24T20:52:36.056Z,8.77
2023-04-24T20:55:04.234Z,9.13
2023-04-24T20:57:31.350Z,7.35
2023-04-24T20:59:58.171Z,10.90
2023-04-24T21:02:25.068Z,6.63
2023-04-24T21:04:51.999Z,10.00
2023-04-24T21:07:18.891Z,8.25
2023-04-24T21:09:45.953Z,10.68
2023-04-24T21:12:12.796Z,11.13
2023-04-24T21:15:11.720Z,11.88
2023-04-24T21:17:45.314Z,7.95
2023-04-24T21:20:12.505Z,10.63
2023-04-24T21:22:39.267Z,7.28
2023-04-24T21:25:06.929Z,8.68
2023-04-24T21:27:33.781Z,7.88
2023-04-24T21:30:00.621Z,9.43
2023-04-24T21:32:27.384Z,9.18
2023-04-24T21:34:54.226Z,10.30
2023-04-24T21:37:21.122Z,7.85
2023-04-24T21:39:47.846Z,9.80
2023-04-24T21:42:14.549Z,11.43
2023-04-24T21:44:41.343Z,11.18
2023-04-24T21:47:09.304Z,8.60
2023-04-24T21:49:36.269Z,9.75
2023-04-24T21:52:03.471Z,10.30
2023-04-24T21:54:30.193Z,9.95
2023-04-24T21:56:56.990Z,8.27
2023-04-24T21:59:24.030Z,8.20
2023-04-24T22:01:50.895Z,8.93
2023-04-24T22:04:17.999Z,8.27
2023-04-24T22:06:45.111Z,8.95
2023-04-24T22:09:12.035Z,9.02
2023-04-24T22:11:39.114Z,11.35
2023-04-24T22:14:07.878Z,12.27
2023-04-24T22:16:34.742Z,8.82
2023-04-24T22:19:01.610Z,8.00
2023-04-24T22:21:28.551Z,7.72
2023-04-24T22:23:55.423Z,8.80
2023-04-24T22:26:22.668Z,8.38
2023-04-24T22:28:49.502Z,12.23
2023-04-24T22:31:16.607Z,10.57
2023-04-24T22:33:49.941Z,9.80
2023-04-24T22:36:16.952Z,8.70
2023-04-24T22:38:44.079Z,10.65
2023-04-24T22:41:11.122Z,13.57
2023-04-24T22:43:38.846Z,13.60
2023-04-24T22:46:05.759Z,13.73
2023-04-24T22:48:33.276Z,12.10
2023-04-24T22:51:00.218Z,10.48
2023-04-24T22:53:28.032Z,10.75
2023-04-24T22:55:56.626Z,9.77
2023-04-24T22:58:24.648Z,7.40
2023-04-24T23:00:51.857Z,10.05
2023-04-24T23:03:19.025Z,9.57
2023-04-24T23:05:45.987Z,9.10
2023-04-24T23:08:12.771Z,9.45
2023-04-24T23:10:39.794Z,9.60
2023-04-24T23:13:06.670Z,14.63
2023-04-24T23:15:33.436Z,8.10
2023-04-24T23:18:00.346Z,10.55
2023-04-24T23:20:27.403Z,12.57
2023-04-24T23:22:54.497Z,9.93
2023-04-24T23:25:21.418Z,9.20
2023-04-24T23:27:48.259Z,11.18
2023-04-24T23:30:15.287Z,10.10
2023-04-24T23:32:44.463Z,9.70
2023-04-24T23:35:11.917Z,8.30
2023-04-24T23:37:38.793Z,7.70
2023-04-24T23:40:07.829Z,10.20
2023-04-24T23:42:35.043Z,8.40
2023-04-24T23:45:01.781Z,8.52
2023-04-24T23:47:28.520Z,9.93
2023-04-24T23:49:55.384Z,9.07
2023-04-24T23:52:22.283Z,8.82
2023-04-24T23:54:49.155Z,9.65
2023-04-24T23:57:15.891Z,9.25
2023-04-24T23:59:42.602Z,10.95
